Hockingport, OH (45739)

11:30 EST le 20 décembre 2014 (GMT -0500)
Decatur TWP | Change Station
CLOSE
Current Station
Stations météorologiques personnelles
Location: Little Hocking, OH
Altitude: 719 ft
Stations météo à proximité

Alt. 719 ft 39.31 °N, 81.73 °W | Updated 1 minute ago

Couvert
Couvert
34.4 ° F
Paraît 34 ° F
N
0.0
Vent Variable Vent de Nord
Gusts 1.3 mph

Aujourd'hui
Haut(e) -- | Bas -- ° F
--% Risque de précip.
Hier
Haut(e) -- | Bas -- ° F
Precip. -- pouce
7:42 AM 5:07 PM
Lune descendante, 2% visible
Pression 30.33 pouce
Visibilité 10.0 Miles terrestres
Nuages Couvert 2300 ft
Refroidissement éolien 34 ° F
Point de rosée 27 ° F
Humidité 74%
Précipitations 0.00 pouce
Profondeur de la couche neigeuse Non disponible.
UV 1 sur 12
Pollen .10 sur 12
Qualité de l'air Non disponible.
Flu Activity Non disponible.
METAR KPKB 201553Z VRB03KT 10SM OVC023 00/M06 A3031 RMK AO2 SLP270 T00001056

More Conditions Fewer Conditions

Pression 30.33 pouce
Visibilité 10.0 Miles terrestres
Nuages Couvert 2300 ft
Refroidissement éolien 34 ° F
Point de rosée 27 ° F
Humidité 74%
Précipitations 0.00 pouce
Profondeur de la couche neigeuse Non disponible.
UV 1 sur 12
Pollen .10 sur 12
Qualité de l'air Non disponible.
Flu Activity Non disponible.
METAR KPKB 201553Z VRB03KT 10SM OVC023 00/M06 A3031 RMK AO2 SLP270 T00001056

More Conditions Fewer Conditions

10-Day Weather Forecast

Almanac

Astronomie

Dec. 20, 2014 Lever Coucher
Temps réel
Crépuscule civil
Crépuscule nautique
Crépuscule astronomique
Lune
Durée de lumière visible
Longueur du jour
Tomorrow will be .
, % of the Moon is Illuminated

Extrêmes aujourd'hui

State Highs State Lows

Community

WunderPhotos

Upload Photos

1,779,215 Photos téléchargées !

WunderBlogs® & News

Nearby

Qualité de l'air

  Qualité de l'air Indice de la qualité de l'air Polluant
Not available.

Épaisseur de neige

Station Depth Altitude

Activité sismique

Ville Distance Mag. Time & Date
Minimum magnitude displayed is 2.5.

Températures des eaux côtières

Lieu Température

Stations météo à proximité